createdAt,value
2022-08-17T00:02:25.910Z,1.92
2022-08-17T00:06:31.615Z,1.63
2022-08-17T00:10:37.984Z,2.13
2022-08-17T00:14:41.954Z,2.42
2022-08-17T00:19:04.164Z,2.78
2022-08-17T00:23:12.299Z,1.77
2022-08-17T00:27:17.242Z,1.98
2022-08-17T00:31:21.105Z,1.63
2022-08-17T00:35:25.892Z,1.65
2022-08-17T00:39:29.511Z,2.17
2022-08-17T00:43:36.863Z,1.70
2022-08-17T00:47:40.164Z,1.58
2022-08-17T00:51:49.559Z,2.08
2022-08-17T00:56:01.932Z,1.75
2022-08-17T01:00:12.498Z,1.42
2022-08-17T01:04:18.246Z,1.40
2022-08-17T01:08:25.556Z,2.05
2022-08-17T01:12:32.088Z,1.90
2022-08-17T01:16:37.864Z,1.73
2022-08-17T01:20:49.140Z,1.70
2022-08-17T01:24:59.637Z,2.22
2022-08-17T01:29:05.314Z,2.50
2022-08-17T01:33:11.561Z,1.85
2022-08-17T01:37:16.624Z,2.15
2022-08-17T01:41:24.550Z,2.05
2022-08-17T01:45:32.309Z,1.80
2022-08-17T01:49:36.300Z,1.63
2022-08-17T01:53:44.812Z,2.15
2022-08-17T01:57:49.854Z,2.60
2022-08-17T02:01:53.356Z,1.92
2022-08-17T02:05:57.144Z,2.72
2022-08-17T02:10:00.802Z,1.92
2022-08-17T02:14:06.826Z,2.63
2022-08-17T02:18:11.807Z,1.08
2022-08-17T02:22:15.169Z,2.33
2022-08-17T02:26:25.948Z,1.67
2022-08-17T02:31:01.045Z,1.67
2022-08-17T02:34:54.629Z,2.75
2022-08-17T02:38:59.111Z,2.05
2022-08-17T02:43:02.707Z,1.77
2022-08-17T02:47:08.989Z,1.75
2022-08-17T02:51:12.768Z,2.17
2022-08-17T02:55:18.300Z,2.45
2022-08-17T02:59:22.385Z,1.80
2022-08-17T03:03:27.328Z,2.35
2022-08-17T03:07:32.252Z,2.40
2022-08-17T03:11:36.019Z,2.03
2022-08-17T03:15:40.789Z,1.70
2022-08-17T03:19:49.180Z,1.63
2022-08-17T03:23:54.527Z,2.47
2022-08-17T03:27:58.811Z,2.40
2022-08-17T03:32:02.277Z,1.98
2022-08-17T03:36:08.184Z,2.15
2022-08-17T03:40:13.613Z,2.30
2022-08-17T03:44:16.789Z,2.10
2022-08-17T03:48:37.550Z,2.78
2022-08-17T03:52:59.949Z,2.03
2022-08-17T03:57:05.925Z,2.00
2022-08-17T04:01:09.688Z,2.85
2022-08-17T04:05:13.403Z,2.28
2022-08-17T04:09:18.545Z,2.33
2022-08-17T04:13:24.888Z,2.78
2022-08-17T04:17:31.105Z,2.25
2022-08-17T04:21:35.337Z,2.72
2022-08-17T04:25:45.768Z,2.38
2022-08-17T04:29:54.625Z,2.40
2022-08-17T04:33:59.271Z,2.40
2022-08-17T04:38:03.461Z,2.60
2022-08-17T04:42:17.381Z,2.70
2022-08-17T04:46:23.223Z,3.85
2022-08-17T04:50:26.763Z,2.30
2022-08-17T04:54:30.476Z,2.97
2022-08-17T04:58:35.287Z,3.03
2022-08-17T05:02:50.061Z,3.33
2022-08-17T05:06:55.854Z,2.92
2022-08-17T05:10:59.695Z,3.13
2022-08-17T05:15:04.218Z,2.80
2022-08-17T05:19:08.246Z,2.45
2022-08-17T05:23:13.687Z,2.67
2022-08-17T05:27:18.854Z,2.88
2022-08-17T05:31:24.259Z,2.92
2022-08-17T05:35:29.197Z,2.63
2022-08-17T05:39:33.130Z,3.38
2022-08-17T05:43:38.865Z,2.72
2022-08-17T05:47:45.825Z,2.42
2022-08-17T05:52:11.985Z,2.70
2022-08-17T05:56:29.446Z,2.95
2022-08-17T06:00:42.155Z,3.17
2022-08-17T06:05:11.221Z,2.92
2022-08-17T06:09:33.587Z,2.83
2022-08-17T06:14:05.085Z,2.65
2022-08-17T06:18:13.802Z,2.80
2022-08-17T06:22:25.812Z,3.08
2022-08-17T06:26:38.463Z,3.13
2022-08-17T06:31:00.829Z,2.75
2022-08-17T06:35:05.674Z,2.75
2022-08-17T06:39:28.587Z,3.10
2022-08-17T06:47:58.243Z,2.65
2022-08-17T06:52:09.833Z,2.53
2022-08-17T06:56:25.597Z,2.00
2022-08-17T07:00:56.608Z,2.78
2022-08-17T07:05:02.642Z,2.58
2022-08-17T07:09:11.807Z,2.38
2022-08-17T07:13:29.942Z,1.95
2022-08-17T07:17:46.508Z,2.67
2022-08-17T07:21:58.713Z,2.40
2022-08-17T07:26:06.317Z,2.63
2022-08-17T07:30:19.982Z,2.38
2022-08-17T07:34:23.327Z,2.45
2022-08-17T07:38:29.194Z,2.40
2022-08-17T07:42:34.266Z,2.30
2022-08-17T07:47:08.332Z,2.83
2022-08-17T07:51:32.897Z,2.03
2022-08-17T07:55:41.149Z,2.20
2022-08-17T08:00:06.606Z,3.10
2022-08-17T08:04:49.944Z,2.30
2022-08-17T08:08:55.490Z,2.10
2022-08-17T08:13:14.089Z,2.13
2022-08-17T08:17:25.630Z,2.47
2022-08-17T08:21:48.388Z,2.15
2022-08-17T08:26:05.827Z,1.95
2022-08-17T08:30:11.961Z,2.13
2022-08-17T08:34:44.461Z,1.77
2022-08-17T08:39:01.808Z,2.45
2022-08-17T08:43:14.572Z,2.08
2022-08-17T08:47:35.447Z,2.25
2022-08-17T08:51:48.532Z,1.65
2022-08-17T08:56:07.271Z,2.28
2022-08-17T09:00:17.016Z,1.80
2022-08-17T09:05:10.612Z,2.10
2022-08-17T09:09:20.605Z,1.65
2022-08-17T09:13:33.760Z,1.70
2022-08-17T09:17:44.273Z,1.42
2022-08-17T09:22:02.082Z,1.63
2022-08-17T09:26:14.616Z,1.63
2022-08-17T09:30:23.734Z,1.63
2022-08-17T09:34:35.619Z,1.63
2022-08-17T09:38:48.899Z,1.25
2022-08-17T09:42:58.411Z,1.40
2022-08-17T09:47:10.359Z,1.42
2022-08-17T09:55:21.948Z,1.38
2022-08-17T09:59:42.560Z,1.50
2022-08-17T10:04:07.111Z,1.10
2022-08-17T10:08:24.318Z,1.50
2022-08-17T10:12:46.379Z,1.00
2022-08-17T10:16:57.361Z,1.38
2022-08-17T10:21:22.463Z,1.20
2022-08-17T10:26:00.535Z,1.45
2022-08-17T10:30:06.915Z,0.95
2022-08-17T10:34:49.914Z,1.00
2022-08-17T10:39:09.082Z,1.27
2022-08-17T10:43:27.425Z,1.05
2022-08-17T10:48:05.222Z,1.45
2022-08-17T10:52:50.542Z,1.25
2022-08-17T10:56:58.719Z,1.40
2022-08-17T11:01:04.685Z,1.25
2022-08-17T11:05:29.132Z,1.10
2022-08-17T11:09:47.592Z,1.30
2022-08-17T11:14:22.071Z,1.52
2022-08-17T11:18:40.360Z,1.63
2022-08-17T11:23:14.132Z,1.20
2022-08-17T11:27:28.188Z,1.38
2022-08-17T11:31:38.680Z,1.10
2022-08-17T11:35:54.733Z,1.38
2022-08-17T11:40:29.160Z,1.27
2022-08-17T11:44:50.986Z,1.35
2022-08-17T11:49:26.699Z,1.20
2022-08-17T11:58:44.534Z,1.48
2022-08-17T12:03:11.246Z,0.90
2022-08-17T12:07:23.805Z,0.90
2022-08-17T12:11:58.589Z,0.82
2022-08-17T12:15:59.771Z,1.48
2022-08-17T12:20:15.290Z,1.10
2022-08-17T12:24:45.720Z,0.98
2022-08-17T12:28:52.801Z,1.10
2022-08-17T12:32:58.207Z,1.00
2022-08-17T12:37:03.986Z,1.00
2022-08-17T12:41:29.421Z,1.00
2022-08-17T12:45:40.222Z,0.93
2022-08-17T12:49:46.302Z,0.73
2022-08-17T12:53:56.887Z,0.80
2022-08-17T12:58:04.890Z,0.77
2022-08-17T13:02:12.244Z,0.90
2022-08-17T13:06:29.181Z,0.60
2022-08-17T13:10:35.383Z,0.70
2022-08-17T13:14:49.349Z,0.90
2022-08-17T13:18:56.602Z,0.60
2022-08-17T13:23:12.388Z,0.63
2022-08-17T13:27:18.332Z,0.73
2022-08-17T13:31:42.108Z,0.80
2022-08-17T13:36:09.844Z,0.75
2022-08-17T13:40:35.217Z,0.70
2022-08-17T13:44:40.857Z,0.60
2022-08-17T13:48:48.555Z,0.70
2022-08-17T13:52:52.512Z,0.88
2022-08-17T13:57:27.912Z,0.73
2022-08-17T14:01:34.134Z,0.73
2022-08-17T14:05:41.348Z,0.90
2022-08-17T14:09:50.067Z,0.60
2022-08-17T14:13:53.910Z,0.90
2022-08-17T14:18:00.549Z,0.70
2022-08-17T14:22:12.771Z,0.93
2022-08-17T14:26:38.366Z,0.80
2022-08-17T14:30:45.538Z,0.90
2022-08-17T14:34:51.237Z,0.80
2022-08-17T14:38:58.522Z,0.50
2022-08-17T14:43:03.110Z,0.93
2022-08-17T14:47:07.774Z,0.73
2022-08-17T14:51:12.405Z,0.63
2022-08-17T14:55:20.870Z,0.60
2022-08-17T14:59:24.989Z,0.63
2022-08-17T15:03:29.829Z,1.13
2022-08-17T15:07:33.899Z,0.70
2022-08-17T15:11:39.785Z,0.50
2022-08-17T15:15:44.185Z,0.70
2022-08-17T15:19:47.960Z,0.90
2022-08-17T15:23:52.030Z,1.00
2022-08-17T15:27:57.993Z,0.80
2022-08-17T15:32:02.781Z,0.50
2022-08-17T15:36:08.779Z,0.80
2022-08-17T15:40:13.536Z,0.77
2022-08-17T15:44:19.627Z,1.05
2022-08-17T15:48:24.655Z,0.70
2022-08-17T15:52:31.852Z,0.80
2022-08-17T15:56:35.366Z,0.82
2022-08-17T16:00:52.120Z,0.88
2022-08-17T16:05:10.402Z,0.90
2022-08-17T16:09:15.318Z,0.55
2022-08-17T16:13:21.044Z,1.15
2022-08-17T16:17:49.509Z,1.02
2022-08-17T16:21:50.706Z,0.68
2022-08-17T16:25:54.736Z,0.50
2022-08-17T16:29:58.663Z,0.73
2022-08-17T16:34:17.527Z,0.90
2022-08-17T16:38:22.839Z,0.88
2022-08-17T16:42:29.623Z,1.30
2022-08-17T16:46:34.404Z,0.90
2022-08-17T16:50:40.033Z,0.77
2022-08-17T16:54:47.585Z,0.85
2022-08-17T16:58:53.318Z,0.82
2022-08-17T17:02:57.452Z,0.75
2022-08-17T17:07:13.535Z,0.80
2022-08-17T17:11:34.277Z,0.90
2022-08-17T17:15:54.327Z,0.90
2022-08-17T17:20:10.979Z,0.70
2022-08-17T17:24:29.945Z,0.90
2022-08-17T17:28:41.490Z,0.77
2022-08-17T17:32:51.796Z,0.50
2022-08-17T17:37:00.847Z,0.68
2022-08-17T17:41:10.909Z,0.70
2022-08-17T17:45:20.822Z,0.90
2022-08-17T17:49:25.880Z,1.10
2022-08-17T17:53:46.606Z,0.90
2022-08-17T17:58:03.245Z,0.82
2022-08-17T18:02:40.080Z,0.73
2022-08-17T18:06:55.873Z,0.77
2022-08-17T18:11:08.148Z,1.02
2022-08-17T18:15:35.793Z,1.33
2022-08-17T18:19:42.233Z,0.70
2022-08-17T18:23:56.339Z,0.75
2022-08-17T18:28:03.342Z,1.05
2022-08-17T18:32:31.980Z,1.10
2022-08-17T18:36:38.425Z,1.25
2022-08-17T18:40:49.391Z,1.00
2022-08-17T18:44:55.305Z,1.27
2022-08-17T18:49:03.900Z,0.77
2022-08-17T18:53:33.130Z,1.15
2022-08-17T18:57:42.095Z,1.40
2022-08-17T19:02:07.578Z,1.27
2022-08-17T19:06:27.976Z,1.17
2022-08-17T19:10:46.295Z,1.17
2022-08-17T19:19:22.924Z,1.30
2022-08-17T19:23:32.662Z,1.50
2022-08-17T19:27:57.388Z,1.65
2022-08-17T19:32:01.964Z,1.58
2022-08-17T19:36:09.491Z,1.50
2022-08-17T19:40:50.988Z,1.17
2022-08-17T19:45:02.837Z,1.15
2022-08-17T19:49:15.240Z,1.25
2022-08-17T19:53:47.451Z,1.50
2022-08-17T19:58:05.129Z,1.20
2022-08-17T20:02:26.565Z,1.17
2022-08-17T20:06:36.366Z,1.10
2022-08-17T20:10:47.382Z,1.15
2022-08-17T20:15:05.545Z,1.10
2022-08-17T20:19:16.693Z,2.00
2022-08-17T20:23:31.683Z,2.72
2022-08-17T20:27:38.148Z,1.65
2022-08-17T20:32:17.189Z,1.83
2022-08-17T20:36:22.629Z,2.10
2022-08-17T20:40:32.894Z,1.80
2022-08-17T20:44:38.718Z,1.73
2022-08-17T20:48:46.673Z,1.55
2022-08-17T20:52:56.937Z,1.80
2022-08-17T20:57:01.925Z,1.58
2022-08-17T21:01:14.417Z,1.50
2022-08-17T21:05:39.014Z,1.70
2022-08-17T21:09:42.557Z,1.23
2022-08-17T21:14:10.557Z,1.67
2022-08-17T21:18:21.495Z,1.52
2022-08-17T21:22:38.829Z,1.90
2022-08-17T21:26:56.194Z,1.27
2022-08-17T21:31:03.132Z,1.70
2022-08-17T21:35:26.240Z,1.33
2022-08-17T21:39:42.047Z,1.85
2022-08-17T21:43:50.896Z,1.67
2022-08-17T21:48:11.582Z,1.35
2022-08-17T21:52:18.050Z,1.65
2022-08-17T21:56:27.105Z,2.00
2022-08-17T22:00:33.361Z,1.80
2022-08-17T22:04:38.805Z,1.77
2022-08-17T22:08:42.145Z,1.80
2022-08-17T22:13:04.242Z,1.42
2022-08-17T22:17:16.950Z,1.57
2022-08-17T22:25:31.639Z,1.33
2022-08-17T22:29:59.152Z,1.95
2022-08-17T22:34:13.762Z,2.00
2022-08-17T22:38:31.497Z,2.28
2022-08-17T22:42:37.208Z,2.22
2022-08-17T22:46:58.006Z,1.88
2022-08-17T22:51:12.635Z,1.80
2022-08-17T22:55:37.068Z,1.90
2022-08-17T22:59:45.869Z,2.13
2022-08-17T23:03:58.366Z,1.90
2022-08-17T23:08:01.996Z,1.67
2022-08-17T23:12:10.012Z,2.70
2022-08-17T23:16:14.987Z,1.75
2022-08-17T23:20:20.126Z,1.98
2022-08-17T23:24:26.575Z,2.13
2022-08-17T23:28:30.303Z,1.75
2022-08-17T23:32:44.348Z,2.35
2022-08-17T23:36:59.259Z,2.15
2022-08-17T23:41:06.407Z,1.83
2022-08-17T23:45:10.911Z,1.58
2022-08-17T23:49:14.039Z,1.58
2022-08-17T23:53:19.630Z,2.00
2022-08-17T23:57:33.608Z,1.50
